sensor_id;sensor_type;location;lat;lon;timestamp;pressure;altitude;pressure_sealevel;temperature;humidity
26436;BME280;15351;52.408;16.826;2023-02-17T00:01:38;101223.38;;;7.71;72.19
26436;BME280;15351;52.408;16.826;2023-02-17T00:04:09;101223.05;;;7.70;71.99
26436;BME280;15351;52.408;16.826;2023-02-17T00:06:47;101222.29;;;7.69;72.04
26436;BME280;15351;52.408;16.826;2023-02-17T00:09:17;101215.92;;;7.66;71.83
26436;BME280;15351;52.408;16.826;2023-02-17T00:11:46;101212.90;;;7.64;72.11
26436;BME280;15351;52.408;16.826;2023-02-17T00:14:15;101208.23;;;7.64;72.12
26436;BME280;15351;52.408;16.826;2023-02-17T00:16:43;101208.23;;;7.64;72.12
26436;BME280;15351;52.408;16.826;2023-02-17T00:19:30;101208.70;;;7.67;72.02
26436;BME280;15351;52.408;16.826;2023-02-17T00:22:00;101206.62;;;7.62;71.77
26436;BME280;15351;52.408;16.826;2023-02-17T00:24:30;101201.91;;;7.57;72.06
26436;BME280;15351;52.408;16.826;2023-02-17T00:27:02;101200.48;;;7.61;72.36
26436;BME280;15351;52.408;16.826;2023-02-17T00:29:32;101203.79;;;7.66;72.28
26436;BME280;15351;52.408;16.826;2023-02-17T00:32:11;101198.98;;;7.67;72.12
26436;BME280;15351;52.408;16.826;2023-02-17T00:34:41;101193.00;;;7.68;72.10
26436;BME280;15351;52.408;16.826;2023-02-17T00:37:12;101199.94;;;7.69;72.05
26436;BME280;15351;52.408;16.826;2023-02-17T00:39:48;101192.77;;;7.72;72.21
26436;BME280;15351;52.408;16.826;2023-02-17T00:42:24;101190.65;;;7.73;71.94
26436;BME280;15351;52.408;16.826;2023-02-17T00:45:17;101198.17;;;7.72;71.80
26436;BME280;15351;52.408;16.826;2023-02-17T00:48:06;101197.38;;;7.67;72.00
26436;BME280;15351;52.408;16.826;2023-02-17T00:50:56;101193.27;;;7.65;72.16
26436;BME280;15351;52.408;16.826;2023-02-17T00:53:24;101187.48;;;7.68;72.17
26436;BME280;15351;52.408;16.826;2023-02-17T00:55:59;101182.58;;;7.71;72.06
26436;BME280;15351;52.408;16.826;2023-02-17T00:58:31;101183.45;;;7.71;71.96
26436;BME280;15351;52.408;16.826;2023-02-17T01:00:58;101187.57;;;7.67;71.99
26436;BME280;15351;52.408;16.826;2023-02-17T01:03:27;101187.91;;;7.67;72.29
26436;BME280;15351;52.408;16.826;2023-02-17T01:05:56;101182.71;;;7.69;72.23
26436;BME280;15351;52.408;16.826;2023-02-17T01:08:25;101184.02;;;7.70;72.01
26436;BME280;15351;52.408;16.826;2023-02-17T01:10:54;101183.11;;;7.69;72.02
26436;BME280;15351;52.408;16.826;2023-02-17T01:13:26;101179.61;;;7.68;72.20
26436;BME280;15351;52.408;16.826;2023-02-17T01:15:57;101179.41;;;7.68;72.23
26436;BME280;15351;52.408;16.826;2023-02-17T01:18:39;101164.73;;;7.68;72.27
26436;BME280;15351;52.408;16.826;2023-02-17T01:21:15;101164.55;;;7.70;72.10
26436;BME280;15351;52.408;16.826;2023-02-17T01:23:54;101161.10;;;7.69;72.04
26436;BME280;15351;52.408;16.826;2023-02-17T01:26:28;101160.19;;;7.65;72.15
26436;BME280;15351;52.408;16.826;2023-02-17T01:29:07;101153.96;;;7.66;72.40
26436;BME280;15351;52.408;16.826;2023-02-17T01:31:40;101146.41;;;7.67;72.15
26436;BME280;15351;52.408;16.826;2023-02-17T01:34:12;101142.58;;;7.65;72.14
26436;BME280;15351;52.408;16.826;2023-02-17T01:36:48;101142.53;;;7.62;72.23
26436;BME280;15351;52.408;16.826;2023-02-17T01:39:19;101139.73;;;7.63;72.31
26436;BME280;15351;52.408;16.826;2023-02-17T01:41:52;101137.23;;;7.65;72.42
26436;BME280;15351;52.408;16.826;2023-02-17T01:44:32;101135.02;;;7.68;72.42
26436;BME280;15351;52.408;16.826;2023-02-17T01:46:59;101134.73;;;7.71;72.36
26436;BME280;15351;52.408;16.826;2023-02-17T01:49:37;101130.09;;;7.71;72.21
26436;BME280;15351;52.408;16.826;2023-02-17T01:52:11;101122.05;;;7.71;72.22
26436;BME280;15351;52.408;16.826;2023-02-17T01:54:58;101114.38;;;7.71;72.41
26436;BME280;15351;52.408;16.826;2023-02-17T01:57:57;101115.09;;;7.71;72.32
26436;BME280;15351;52.408;16.826;2023-02-17T02:01:00;101110.92;;;7.67;72.22
26436;BME280;15351;52.408;16.826;2023-02-17T02:03:40;101110.48;;;7.66;72.44
26436;BME280;15351;52.408;16.826;2023-02-17T02:06:30;101108.33;;;7.68;72.51
26436;BME280;15351;52.408;16.826;2023-02-17T02:11:59;101099.52;;;7.65;72.41
26436;BME280;15351;52.408;16.826;2023-02-17T02:14:31;101098.17;;;7.65;72.54
26436;BME280;15351;52.408;16.826;2023-02-17T02:17:30;101101.38;;;7.66;72.64
26436;BME280;15351;52.408;16.826;2023-02-17T02:20:27;101097.86;;;7.67;72.78
26436;BME280;15351;52.408;16.826;2023-02-17T02:23:31;101095.52;;;7.69;72.55
26436;BME280;15351;52.408;16.826;2023-02-17T02:29:40;101085.17;;;7.71;72.55
26436;BME280;15351;52.408;16.826;2023-02-17T02:32:38;101081.70;;;7.73;72.69
26436;BME280;15351;52.408;16.826;2023-02-17T02:38:19;101080.03;;;7.70;72.46
26436;BME280;15351;52.408;16.826;2023-02-17T02:43:46;101077.68;;;7.67;72.50
26436;BME280;15351;52.408;16.826;2023-02-17T02:46:26;101066.16;;;7.65;72.70
26436;BME280;15351;52.408;16.826;2023-02-17T02:49:05;101060.94;;;7.64;72.66
26436;BME280;15351;52.408;16.826;2023-02-17T02:51:56;101058.91;;;7.63;72.68
26436;BME280;15351;52.408;16.826;2023-02-17T02:58:07;101054.59;;;7.70;72.70
26436;BME280;15351;52.408;16.826;2023-02-17T03:01:11;101057.21;;;7.74;72.63
26436;BME280;15351;52.408;16.826;2023-02-17T03:04:06;101052.58;;;7.74;72.63
26436;BME280;15351;52.408;16.826;2023-02-17T03:07:08;101047.62;;;7.75;72.79
26436;BME280;15351;52.408;16.826;2023-02-17T03:09:41;101045.92;;;7.78;72.70
26436;BME280;15351;52.408;16.826;2023-02-17T03:12:17;101046.02;;;7.77;72.40
26436;BME280;15351;52.408;16.826;2023-02-17T03:14:59;101040.94;;;7.74;72.44
26436;BME280;15351;52.408;16.826;2023-02-17T03:17:33;101040.40;;;7.74;72.64
26436;BME280;15351;52.408;16.826;2023-02-17T03:20:03;101044.27;;;7.75;72.74
26436;BME280;15351;52.408;16.826;2023-02-17T03:22:38;101043.27;;;7.74;72.60
26436;BME280;15351;52.408;16.826;2023-02-17T03:25:15;101042.75;;;7.74;72.47
26436;BME280;15351;52.408;16.826;2023-02-17T03:27:45;101036.44;;;7.74;72.44
26436;BME280;15351;52.408;16.826;2023-02-17T03:30:14;101034.65;;;7.74;72.54
26436;BME280;15351;52.408;16.826;2023-02-17T03:32:53;101029.55;;;7.77;72.87
26436;BME280;15351;52.408;16.826;2023-02-17T03:35:23;101024.80;;;7.82;72.65
26436;BME280;15351;52.408;16.826;2023-02-17T03:37:54;101024.46;;;7.80;72.41
26436;BME280;15351;52.408;16.826;2023-02-17T03:40:30;101025.27;;;7.75;72.43
26436;BME280;15351;52.408;16.826;2023-02-17T03:43:05;101020.29;;;7.70;72.54
26436;BME280;15351;52.408;16.826;2023-02-17T03:45:37;101013.39;;;7.69;72.76
26436;BME280;15351;52.408;16.826;2023-02-17T03:48:08;101011.83;;;7.72;72.80
26436;BME280;15351;52.408;16.826;2023-02-17T03:50:44;101012.34;;;7.72;72.71
26436;BME280;15351;52.408;16.826;2023-02-17T03:53:15;101009.05;;;7.71;72.86
26436;BME280;15351;52.408;16.826;2023-02-17T03:55:47;101007.65;;;7.67;73.33
26436;BME280;15351;52.408;16.826;2023-02-17T03:58:36;101001.05;;;7.65;73.84
26436;BME280;15351;52.408;16.826;2023-02-17T04:01:08;100992.30;;;7.63;74.22
26436;BME280;15351;52.408;16.826;2023-02-17T04:03:39;100993.06;;;7.62;74.45
26436;BME280;15351;52.408;16.826;2023-02-17T04:06:29;100989.14;;;7.62;74.73
26436;BME280;15351;52.408;16.826;2023-02-17T04:09:00;100987.41;;;7.65;75.09
26436;BME280;15351;52.408;16.826;2023-02-17T04:11:41;100982.46;;;7.67;75.22
26436;BME280;15351;52.408;16.826;2023-02-17T04:14:10;100982.88;;;7.61;75.36
26436;BME280;15351;52.408;16.826;2023-02-17T04:16:41;100981.27;;;7.53;75.57
26436;BME280;15351;52.408;16.826;2023-02-17T04:19:11;100986.16;;;7.50;75.63
26436;BME280;15351;52.408;16.826;2023-02-17T04:21:39;100986.80;;;7.49;76.04
26436;BME280;15351;52.408;16.826;2023-02-17T04:24:06;100984.17;;;7.49;76.57
26436;BME280;15351;52.408;16.826;2023-02-17T04:26:38;100981.91;;;7.50;76.54
26436;BME280;15351;52.408;16.826;2023-02-17T04:29:06;100988.51;;;7.47;76.64
26436;BME280;15351;52.408;16.826;2023-02-17T04:31:35;100985.67;;;7.46;76.95
26436;BME280;15351;52.408;16.826;2023-02-17T04:34:03;100984.96;;;7.48;76.98
26436;BME280;15351;52.408;16.826;2023-02-17T04:36:35;100979.04;;;7.50;77.30
26436;BME280;15351;52.408;16.826;2023-02-17T04:39:23;100978.11;;;7.54;77.45
26436;BME280;15351;52.408;16.826;2023-02-17T04:41:51;100971.23;;;7.59;77.31
26436;BME280;15351;52.408;16.826;2023-02-17T04:44:30;100966.78;;;7.62;77.33
26436;BME280;15351;52.408;16.826;2023-02-17T04:47:02;100961.59;;;7.60;77.40
26436;BME280;15351;52.408;16.826;2023-02-17T04:49:33;100961.98;;;7.64;77.73
26436;BME280;15351;52.408;16.826;2023-02-17T04:52:02;100955.27;;;7.61;77.49
26436;BME280;15351;52.408;16.826;2023-02-17T04:54:32;100955.92;;;7.58;77.58
26436;BME280;15351;52.408;16.826;2023-02-17T04:57:01;100949.59;;;7.59;77.88
26436;BME280;15351;52.408;16.826;2023-02-17T04:59:30;100948.30;;;7.60;78.05
26436;BME280;15351;52.408;16.826;2023-02-17T05:01:58;100945.52;;;7.65;78.18
26436;BME280;15351;52.408;16.826;2023-02-17T05:04:26;100939.80;;;7.69;78.02
26436;BME280;15351;52.408;16.826;2023-02-17T05:06:59;100934.59;;;7.69;78.01
26436;BME280;15351;52.408;16.826;2023-02-17T05:09:31;100921.38;;;7.72;78.07
26436;BME280;15351;52.408;16.826;2023-02-17T05:11:59;100924.89;;;7.76;78.17
26436;BME280;15351;52.408;16.826;2023-02-17T05:14:36;100923.66;;;7.82;78.10
26436;BME280;15351;52.408;16.826;2023-02-17T05:17:03;100929.92;;;7.78;77.84
26436;BME280;15351;52.408;16.826;2023-02-17T05:19:35;100935.17;;;7.71;77.85
26436;BME280;15351;52.408;16.826;2023-02-17T05:22:05;100931.77;;;7.63;77.82
26436;BME280;15351;52.408;16.826;2023-02-17T05:24:36;100928.09;;;7.59;78.20
26436;BME280;15351;52.408;16.826;2023-02-17T05:27:24;100926.44;;;7.59;78.38
26436;BME280;15351;52.408;16.826;2023-02-17T05:29:52;100924.76;;;7.63;78.39
26436;BME280;15351;52.408;16.826;2023-02-17T05:32:29;100923.11;;;7.64;78.35
26436;BME280;15351;52.408;16.826;2023-02-17T05:35:01;100920.80;;;7.66;78.57
26436;BME280;15351;52.408;16.826;2023-02-17T05:37:30;100920.20;;;7.68;78.61
26436;BME280;15351;52.408;16.826;2023-02-17T05:39:58;100920.49;;;7.67;78.40
26436;BME280;15351;52.408;16.826;2023-02-17T05:42:26;100914.86;;;7.64;78.49
26436;BME280;15351;52.408;16.826;2023-02-17T05:44:55;100912.44;;;7.63;78.54
26436;BME280;15351;52.408;16.826;2023-02-17T05:47:25;100904.48;;;7.66;78.71
26436;BME280;15351;52.408;16.826;2023-02-17T05:49:53;100899.62;;;7.71;78.79
26436;BME280;15351;52.408;16.826;2023-02-17T05:52:22;100896.83;;;7.71;78.56
26436;BME280;15351;52.408;16.826;2023-02-17T05:55:00;100897.75;;;7.69;78.44
26436;BME280;15351;52.408;16.826;2023-02-17T05:57:49;100902.83;;;7.67;78.56
26436;BME280;15351;52.408;16.826;2023-02-17T06:00:21;100904.04;;;7.65;78.50
26436;BME280;15351;52.408;16.826;2023-02-17T06:02:51;100900.69;;;7.62;78.62
26436;BME280;15351;52.408;16.826;2023-02-17T06:05:25;100900.41;;;7.55;78.68
26436;BME280;15351;52.408;16.826;2023-02-17T06:08:13;100900.80;;;7.50;78.84
26436;BME280;15351;52.408;16.826;2023-02-17T06:10:43;100899.85;;;7.47;78.97
26436;BME280;15351;52.408;16.826;2023-02-17T06:13:12;100897.41;;;7.45;79.08
26436;BME280;15351;52.408;16.826;2023-02-17T06:15:45;100892.88;;;7.46;79.43
26436;BME280;15351;52.408;16.826;2023-02-17T06:18:18;100889.95;;;7.48;79.62
26436;BME280;15351;52.408;16.826;2023-02-17T06:21:02;100887.98;;;7.50;79.56
26436;BME280;15351;52.408;16.826;2023-02-17T06:23:33;100883.05;;;7.49;79.64
26436;BME280;15351;52.408;16.826;2023-02-17T06:26:00;100882.48;;;7.51;79.57
26436;BME280;15351;52.408;16.826;2023-02-17T06:28:33;100879.45;;;7.58;79.98
26436;BME280;15351;52.408;16.826;2023-02-17T06:31:03;100877.39;;;7.63;79.91
26436;BME280;15351;52.408;16.826;2023-02-17T06:33:37;100876.88;;;7.64;79.90
26436;BME280;15351;52.408;16.826;2023-02-17T06:36:04;100877.39;;;7.63;79.76
26436;BME280;15351;52.408;16.826;2023-02-17T06:38:33;100882.73;;;7.60;79.91
26436;BME280;15351;52.408;16.826;2023-02-17T06:41:04;100883.90;;;7.57;80.05
26436;BME280;15351;52.408;16.826;2023-02-17T06:43:32;100880.85;;;7.57;80.34
26436;BME280;15351;52.408;16.826;2023-02-17T06:46:02;100877.42;;;7.57;80.37
26436;BME280;15351;52.408;16.826;2023-02-17T06:48:31;100874.15;;;7.61;80.53
26436;BME280;15351;52.408;16.826;2023-02-17T06:51:01;100871.38;;;7.59;80.52
26436;BME280;15351;52.408;16.826;2023-02-17T06:53:28;100864.77;;;7.59;80.88
26436;BME280;15351;52.408;16.826;2023-02-17T06:55:58;100859.82;;;7.65;81.02
26436;BME280;15351;52.408;16.826;2023-02-17T06:58:25;100859.58;;;7.68;80.88
26436;BME280;15351;52.408;16.826;2023-02-17T07:00:53;100863.23;;;7.65;80.90
26436;BME280;15351;52.408;16.826;2023-02-17T07:03:37;100867.46;;;7.62;81.00
26436;BME280;15351;52.408;16.826;2023-02-17T07:06:22;100871.80;;;7.63;81.44
26436;BME280;15351;52.408;16.826;2023-02-17T07:08:56;100868.48;;;7.70;81.61
26436;BME280;15351;52.408;16.826;2023-02-17T07:11:40;100861.08;;;7.72;81.53
26436;BME280;15351;52.408;16.826;2023-02-17T07:14:09;100858.16;;;7.76;81.66
26436;BME280;15351;52.408;16.826;2023-02-17T07:16:37;100859.82;;;7.83;81.38
26436;BME280;15351;52.408;16.826;2023-02-17T07:19:05;100861.70;;;7.86;81.63
26436;BME280;15351;52.408;16.826;2023-02-17T07:21:37;100862.17;;;7.92;81.81
26436;BME280;15351;52.408;16.826;2023-02-17T07:24:20;100853.52;;;7.92;81.55
26436;BME280;15351;52.408;16.826;2023-02-17T07:26:52;100857.27;;;7.89;81.53
26436;BME280;15351;52.408;16.826;2023-02-17T07:29:22;100855.49;;;7.92;81.67
26436;BME280;15351;52.408;16.826;2023-02-17T07:31:54;100852.92;;;7.91;81.81
26436;BME280;15351;52.408;16.826;2023-02-17T07:34:22;100847.72;;;7.91;81.99
26436;BME280;15351;52.408;16.826;2023-02-17T07:36:50;100851.39;;;7.95;82.10
26436;BME280;15351;52.408;16.826;2023-02-17T07:39:18;100849.23;;;7.97;82.12
26436;BME280;15351;52.408;16.826;2023-02-17T07:41:46;100852.55;;;7.96;81.99
26436;BME280;15351;52.408;16.826;2023-02-17T07:44:18;100847.88;;;7.96;82.22
26436;BME280;15351;52.408;16.826;2023-02-17T07:46:45;100847.52;;;7.98;82.31
26436;BME280;15351;52.408;16.826;2023-02-17T07:49:13;100842.95;;;7.97;82.45
26436;BME280;15351;52.408;16.826;2023-02-17T07:51:41;100839.27;;;8.02;82.89
26436;BME280;15351;52.408;16.826;2023-02-17T07:54:09;100837.79;;;8.06;82.61
26436;BME280;15351;52.408;16.826;2023-02-17T07:56:36;100839.91;;;8.08;82.63
26436;BME280;15351;52.408;16.826;2023-02-17T07:59:11;100838.88;;;8.10;82.79
26436;BME280;15351;52.408;16.826;2023-02-17T08:01:43;100834.45;;;8.15;82.86
26436;BME280;15351;52.408;16.826;2023-02-17T08:04:28;100828.95;;;8.17;82.88
26436;BME280;15351;52.408;16.826;2023-02-17T08:06:55;100827.36;;;8.25;83.07
26436;BME280;15351;52.408;16.826;2023-02-17T08:09:26;100829.71;;;8.29;82.74
26436;BME280;15351;52.408;16.826;2023-02-17T08:12:17;100827.70;;;8.27;82.74
26436;BME280;15351;52.408;16.826;2023-02-17T08:15:06;100827.68;;;8.31;82.83
26436;BME280;15351;52.408;16.826;2023-02-17T08:17:38;100826.17;;;8.32;82.80
26436;BME280;15351;52.408;16.826;2023-02-17T08:20:14;100827.42;;;8.32;83.10
26436;BME280;15351;52.408;16.826;2023-02-17T08:34:58;100822.55;;;8.38;83.21
26436;BME280;15351;52.408;16.826;2023-02-17T08:37:40;100816.19;;;8.35;83.22
26436;BME280;15351;52.408;16.826;2023-02-17T08:40:30;100815.09;;;8.32;83.20
26436;BME280;15351;52.408;16.826;2023-02-17T08:43:56;100810.65;;;8.32;83.55
26436;BME280;15351;52.408;16.826;2023-02-17T08:46:52;100803.23;;;8.36;83.87
26436;BME280;15351;52.408;16.826;2023-02-17T08:49:51;100802.76;;;8.40;84.10
26436;BME280;15351;52.408;16.826;2023-02-17T08:52:22;100799.45;;;8.44;84.08
26436;BME280;15351;52.408;16.826;2023-02-17T08:55:17;100795.59;;;8.45;83.98
26436;BME280;15351;52.408;16.826;2023-02-17T08:57:47;100790.63;;;8.45;84.18
26436;BME280;15351;52.408;16.826;2023-02-17T09:00:18;100792.63;;;8.44;84.23
26436;BME280;15351;52.408;16.826;2023-02-17T09:07:22;100775.93;;;8.43;84.84
26436;BME280;15351;52.408;16.826;2023-02-17T09:10:14;100771.41;;;8.47;85.24
26436;BME280;15351;52.408;16.826;2023-02-17T09:12:44;100771.16;;;8.53;85.32
26436;BME280;15351;52.408;16.826;2023-02-17T09:15:13;100769.63;;;8.54;85.38
26436;BME280;15351;52.408;16.826;2023-02-17T09:17:48;100770.96;;;8.53;85.51
26436;BME280;15351;52.408;16.826;2023-02-17T09:20:29;100769.23;;;8.52;85.80
26436;BME280;15351;52.408;16.826;2023-02-17T09:23:02;100769.77;;;8.52;86.09
26436;BME280;15351;52.408;16.826;2023-02-17T09:26:05;100763.55;;;8.52;86.16
26436;BME280;15351;52.408;16.826;2023-02-17T09:28:53;100762.49;;;8.60;86.29
26436;BME280;15351;52.408;16.826;2023-02-17T09:31:28;100756.39;;;8.65;86.41
26436;BME280;15351;52.408;16.826;2023-02-17T09:34:16;100751.44;;;8.68;86.51
26436;BME280;15351;52.408;16.826;2023-02-17T09:36:43;100753.61;;;8.73;86.56
26436;BME280;15351;52.408;16.826;2023-02-17T09:39:20;100739.77;;;8.78;86.76
26436;BME280;15351;52.408;16.826;2023-02-17T09:41:51;100736.20;;;8.83;86.61
26436;BME280;15351;52.408;16.826;2023-02-17T09:44:26;100733.45;;;8.87;86.59
26436;BME280;15351;52.408;16.826;2023-02-17T09:47:09;100733.84;;;8.90;86.63
26436;BME280;15351;52.408;16.826;2023-02-17T09:49:52;100729.31;;;8.90;86.65
26436;BME280;15351;52.408;16.826;2023-02-17T09:52:30;100729.16;;;8.94;86.67
26436;BME280;15351;52.408;16.826;2023-02-17T09:55:37;100728.36;;;8.96;86.82
26436;BME280;15351;52.408;16.826;2023-02-17T09:58:10;100719.38;;;9.03;86.87
26436;BME280;15351;52.408;16.826;2023-02-17T10:00:45;100714.36;;;9.11;87.06
26436;BME280;15351;52.408;16.826;2023-02-17T10:06:14;100693.75;;;9.14;86.70
26436;BME280;15351;52.408;16.826;2023-02-17T10:09:17;100692.08;;;9.13;86.72
26436;BME280;15351;52.408;16.826;2023-02-17T10:14:41;100691.70;;;9.16;86.91
26436;BME280;15351;52.408;16.826;2023-02-17T10:20:13;100681.48;;;9.18;87.26
26436;BME280;15351;52.408;16.826;2023-02-17T10:22:46;100681.66;;;9.23;87.32
26436;BME280;15351;52.408;16.826;2023-02-17T10:25:21;100677.38;;;9.23;87.38
26436;BME280;15351;52.408;16.826;2023-02-17T10:28:21;100678.72;;;9.25;87.39
26436;BME280;15351;52.408;16.826;2023-02-17T10:31:03;100676.33;;;9.29;87.64
26436;BME280;15351;52.408;16.826;2023-02-17T10:33:38;100670.42;;;9.34;87.80
26436;BME280;15351;52.408;16.826;2023-02-17T10:40:18;100657.39;;;9.43;87.69
26436;BME280;15351;52.408;16.826;2023-02-17T10:42:51;100650.56;;;9.43;87.77
26436;BME280;15351;52.408;16.826;2023-02-17T10:45:34;100640.36;;;9.41;87.87
26436;BME280;15351;52.408;16.826;2023-02-17T10:48:22;100633.26;;;9.42;88.10
26436;BME280;15351;52.408;16.826;2023-02-17T10:50:53;100626.96;;;9.44;88.31
26436;BME280;15351;52.408;16.826;2023-02-17T10:53:29;100615.45;;;9.48;88.25
26436;BME280;15351;52.408;16.826;2023-02-17T10:59:05;100594.90;;;9.57;88.59
26436;BME280;15351;52.408;16.826;2023-02-17T11:01:43;100590.65;;;9.62;88.51
26436;BME280;15351;52.408;16.826;2023-02-17T11:04:11;100585.67;;;9.59;88.57
26436;BME280;15351;52.408;16.826;2023-02-17T11:06:43;100576.08;;;9.64;88.81
26436;BME280;15351;52.408;16.826;2023-02-17T11:09:31;100565.77;;;9.67;88.79
26436;BME280;15351;52.408;16.826;2023-02-17T11:12:28;100561.08;;;9.71;88.92
26436;BME280;15351;52.408;16.826;2023-02-17T11:14:55;100553.58;;;9.72;88.89
26436;BME280;15351;52.408;16.826;2023-02-17T11:17:44;100540.20;;;9.73;88.75
26436;BME280;15351;52.408;16.826;2023-02-17T11:20:31;100536.50;;;9.78;88.92
26436;BME280;15351;52.408;16.826;2023-02-17T11:26:28;100520.73;;;9.85;88.81
26436;BME280;15351;52.408;16.826;2023-02-17T11:29:21;100515.20;;;9.89;88.84
26436;BME280;15351;52.408;16.826;2023-02-17T11:32:04;100500.08;;;9.95;89.05
26436;BME280;15351;52.408;16.826;2023-02-17T11:34:36;100493.15;;;9.93;88.82
26436;BME280;15351;52.408;16.826;2023-02-17T11:40:25;100479.08;;;9.93;88.95
26436;BME280;15351;52.408;16.826;2023-02-17T11:43:04;100469.56;;;9.93;89.09
26436;BME280;15351;52.408;16.826;2023-02-17T11:45:51;100476.02;;;9.98;88.92
26436;BME280;15351;52.408;16.826;2023-02-17T12:00:19;100442.48;;;10.01;89.55
26436;BME280;15351;52.408;16.826;2023-02-17T12:14:22;100413.08;;;10.05;89.95
26436;BME280;15351;52.408;16.826;2023-02-17T12:17:39;100409.95;;;10.07;89.93
26436;BME280;15351;52.408;16.826;2023-02-17T12:29:03;100385.41;;;10.19;90.03
26436;BME280;15351;52.408;16.826;2023-02-17T12:38:14;100370.07;;;10.30;90.08
26436;BME280;15351;52.408;16.826;2023-02-17T12:40:50;100365.27;;;10.33;90.10
26436;BME280;15351;52.408;16.826;2023-02-17T12:46:09;100351.33;;;10.32;90.19
26436;BME280;15351;52.408;16.826;2023-02-17T12:48:58;100341.27;;;10.27;90.41
26436;BME280;15351;52.408;16.826;2023-02-17T12:51:33;100334.92;;;10.26;90.38
26436;BME280;15351;52.408;16.826;2023-02-17T12:54:25;100328.77;;;10.28;90.59
26436;BME280;15351;52.408;16.826;2023-02-17T12:57:40;100319.89;;;10.32;90.66
26436;BME280;15351;52.408;16.826;2023-02-17T13:00:50;100310.77;;;10.37;90.47
26436;BME280;15351;52.408;16.826;2023-02-17T13:03:27;100301.72;;;10.39;90.53
26436;BME280;15351;52.408;16.826;2023-02-17T13:09:36;100288.80;;;10.37;90.55
26436;BME280;15351;52.408;16.826;2023-02-17T13:12:42;100273.05;;;10.33;90.46
26436;BME280;15351;52.408;16.826;2023-02-17T13:15:32;100275.61;;;10.34;90.64
26436;BME280;15351;52.408;16.826;2023-02-17T13:18:05;100269.34;;;10.32;90.89
26436;BME280;15351;52.408;16.826;2023-02-17T13:20:51;100270.04;;;10.32;90.92
26436;BME280;15351;52.408;16.826;2023-02-17T13:23:42;100260.30;;;10.32;90.86
26436;BME280;15351;52.408;16.826;2023-02-17T13:26:45;100249.86;;;10.33;91.00
26436;BME280;15351;52.408;16.826;2023-02-17T13:30:04;100235.24;;;10.33;91.09
26436;BME280;15351;52.408;16.826;2023-02-17T13:39:00;100208.45;;;10.40;90.98
26436;BME280;15351;52.408;16.826;2023-02-17T13:42:25;100199.86;;;10.40;90.91
26436;BME280;15351;52.408;16.826;2023-02-17T13:44:50;100190.05;;;10.37;90.94
26436;BME280;15351;52.408;16.826;2023-02-17T13:47:28;100182.20;;;10.37;91.05
26436;BME280;15351;52.408;16.826;2023-02-17T13:49:57;100168.42;;;10.38;91.16
26436;BME280;15351;52.408;16.826;2023-02-17T13:52:29;100163.20;;;10.41;90.98
26436;BME280;15351;52.408;16.826;2023-02-17T13:55:01;100162.83;;;10.42;91.07
26436;BME280;15351;52.408;16.826;2023-02-17T13:57:32;100151.79;;;10.43;91.00
26436;BME280;15351;52.408;16.826;2023-02-17T14:00:09;100146.94;;;10.43;90.93
26436;BME280;15351;52.408;16.826;2023-02-17T14:03:28;100137.64;;;10.43;91.13
26436;BME280;15351;52.408;16.826;2023-02-17T14:06:00;100134.61;;;10.40;91.08
26436;BME280;15351;52.408;16.826;2023-02-17T14:08:37;100127.74;;;10.39;91.03
26436;BME280;15351;52.408;16.826;2023-02-17T14:11:20;100125.23;;;10.37;91.27
26436;BME280;15351;52.408;16.826;2023-02-17T14:13:53;100116.75;;;10.37;91.38
26436;BME280;15351;52.408;16.826;2023-02-17T14:16:31;100112.62;;;10.35;91.45
26436;BME280;15351;52.408;16.826;2023-02-17T14:19:05;100107.59;;;10.35;91.54
26436;BME280;15351;52.408;16.826;2023-02-17T14:21:55;100101.27;;;10.38;91.73
26436;BME280;15351;52.408;16.826;2023-02-17T14:24:35;100093.75;;;10.40;91.90
26436;BME280;15351;52.408;16.826;2023-02-17T14:27:11;100101.10;;;10.41;91.65
26436;BME280;15351;52.408;16.826;2023-02-17T14:29:46;100089.46;;;10.42;91.93
26436;BME280;15351;52.408;16.826;2023-02-17T14:35:18;100076.77;;;10.42;92.00
26436;BME280;15351;52.408;16.826;2023-02-17T14:37:49;100071.30;;;10.40;91.99
26436;BME280;15351;52.408;16.826;2023-02-17T14:40:20;100077.40;;;10.40;92.25
26436;BME280;15351;52.408;16.826;2023-02-17T14:42:50;100070.15;;;10.41;92.14
26436;BME280;15351;52.408;16.826;2023-02-17T14:45:19;100070.89;;;10.43;92.28
26436;BME280;15351;52.408;16.826;2023-02-17T14:47:47;100067.06;;;10.45;92.22
26436;BME280;15351;52.408;16.826;2023-02-17T14:50:17;100070.33;;;10.47;92.41
26436;BME280;15351;52.408;16.826;2023-02-17T14:52:55;100061.74;;;10.45;92.36
26436;BME280;15351;52.408;16.826;2023-02-17T14:55:43;100064.09;;;10.46;92.50
26436;BME280;15351;52.408;16.826;2023-02-17T14:58:19;100061.32;;;10.47;92.56
26436;BME280;15351;52.408;16.826;2023-02-17T15:00:56;100055.96;;;10.48;92.72
26436;BME280;15351;52.408;16.826;2023-02-17T15:03:26;100059.13;;;10.49;92.47
26436;BME280;15351;52.408;16.826;2023-02-17T15:06:00;100063.43;;;10.50;92.62
26436;BME280;15351;52.408;16.826;2023-02-17T15:08:36;100060.14;;;10.52;92.82
26436;BME280;15351;52.408;16.826;2023-02-17T15:11:04;100056.10;;;10.54;92.82
26436;BME280;15351;52.408;16.826;2023-02-17T15:13:33;100054.69;;;10.57;92.65
26436;BME280;15351;52.408;16.826;2023-02-17T15:16:01;100054.22;;;10.59;92.71
26436;BME280;15351;52.408;16.826;2023-02-17T15:18:29;100051.75;;;10.60;92.62
26436;BME280;15351;52.408;16.826;2023-02-17T15:20:58;100051.17;;;10.63;92.69
26436;BME280;15351;52.408;16.826;2023-02-17T15:23:29;100050.37;;;10.67;93.02
26436;BME280;15351;52.408;16.826;2023-02-17T15:26:39;100038.94;;;10.72;92.92
26436;BME280;15351;52.408;16.826;2023-02-17T15:29:37;100030.62;;;10.77;92.92